Time;durP1;ratioP1;P1;durP2;ratioP2;P2;SDS_P1;SDS_P2;PMS_P1;PMS_P2;Temp;Humidity;BMP_temperature;BMP_pressure;BME280_temperature;BME280_humidity;BME280_pressure;Samples;Min_cycle;Max_cycle;Signal;HPM_P1;HPM_P2
2021/04/07 00:00:50;;;;;;;0.35;0.35;;;2.80;99.90;;;;;;4396824;32;20086;-74
2021/04/07 00:03:16;;;;;;;0.30;0.30;;;2.80;99.90;;;;;;4397703;32;20137;-74
2021/04/07 00:05:44;;;;;;;0.30;0.30;;;2.80;99.90;;;;;;4397092;32;20530;-74
2021/04/07 00:08:10;;;;;;;0.40;0.40;;;2.70;99.90;;;;;;4397459;32;20124;-74
2021/04/07 00:10:39;;;;;;;0.30;0.30;;;2.80;99.90;;;;;;4397289;32;20456;-75
2021/04/07 00:13:05;;;;;;;0.20;0.20;;;2.70;99.90;;;;;;4398520;32;20062;-74
2021/04/07 00:15:32;;;;;;;0.30;0.30;;;2.80;99.90;;;;;;4398297;32;20066;-74
2021/04/07 00:17:57;;;;;;;0.30;0.30;;;2.80;99.90;;;;;;4398606;32;20124;-74
2021/04/07 00:20:25;;;;;;;0.30;0.30;;;2.70;99.90;;;;;;4397616;32;20087;-75
2021/04/07 00:22:51;;;;;;;0.30;0.30;;;2.70;99.90;;;;;;4398200;32;20065;-74
2021/04/07 00:25:18;;;;;;;0.55;0.55;;;2.60;99.90;;;;;;4399127;32;20142;-74
2021/04/07 00:27:52;;;;;;;0.30;0.30;;;2.60;99.90;;;;;;4399856;32;20065;-74
2021/04/07 00:30:18;;;;;;;0.88;0.85;;;2.60;99.90;;;;;;4400591;32;20137;-74
2021/04/07 00:32:44;;;;;;;0.30;0.30;;;2.60;99.90;;;;;;4399813;32;20073;-74
2021/04/07 00:35:09;;;;;;;0.37;0.37;;;2.70;99.90;;;;;;4399325;32;20496;-74
2021/04/07 00:37:37;;;;;;;0.20;0.20;;;2.80;99.90;;;;;;4400208;32;20130;-74
2021/04/07 00:40:04;;;;;;;0.30;0.30;;;2.80;99.90;;;;;;4400807;32;20073;-74
2021/04/07 00:42:32;;;;;;;0.57;0.57;;;2.70;99.90;;;;;;4403608;32;20078;-74
2021/04/07 00:44:58;;;;;;;0.30;0.30;;;2.90;99.90;;;;;;4403488;32;20086;-74
2021/04/07 00:47:24;;;;;;;0.40;0.40;;;2.90;99.90;;;;;;4403206;32;20077;-74
2021/04/07 00:49:49;;;;;;;0.30;0.30;;;2.80;99.90;;;;;;4403896;32;20089;-74
2021/04/07 00:52:15;;;;;;;0.20;0.20;;;2.80;99.90;;;;;;4401028;32;20121;-74
2021/04/07 00:54:41;;;;;;;0.30;0.30;;;2.80;99.90;;;;;;4399889;32;20082;-74
2021/04/07 00:57:07;;;;;;;0.30;0.30;;;2.80;99.90;;;;;;4401118;32;20070;-74
2021/04/07 00:59:32;;;;;;;0.40;0.40;;;2.70;99.90;;;;;;4400608;32;20482;-75
2021/04/07 01:01:58;;;;;;;0.30;0.30;;;2.60;99.90;;;;;;4399518;32;20066;-74
2021/04/07 01:04:25;;;;;;;0.30;0.30;;;2.70;99.90;;;;;;4400939;32;20070;-74
2021/04/07 01:06:51;;;;;;;0.37;0.37;;;2.80;99.90;;;;;;4399180;32;20510;-74
2021/04/07 01:09:17;;;;;;;4.70;1.52;;;2.70;99.90;;;;;;4399358;32;20138;-75
2021/04/07 01:11:43;;;;;;;0.40;0.40;;;2.80;99.90;;;;;;4399695;32;20074;-75
2021/04/07 01:14:09;;;;;;;0.30;0.30;;;2.80;99.90;;;;;;4399691;32;20467;-74
2021/04/07 01:16:34;;;;;;;0.35;0.35;;;2.80;99.90;;;;;;4400895;32;20065;-75
2021/04/07 01:19:00;;;;;;;0.40;0.40;;;2.90;99.90;;;;;;4399649;32;20404;-75
2021/04/07 01:21:25;;;;;;;0.40;0.40;;;2.90;99.90;;;;;;4399955;32;20061;-74
2021/04/07 01:23:51;;;;;;;0.30;0.30;;;2.70;99.90;;;;;;4399267;32;20094;-74
2021/04/07 01:26:17;;;;;;;0.30;0.30;;;2.70;99.90;;;;;;4399534;32;20102;-75
2021/04/07 01:28:43;;;;;;;0.50;0.50;;;2.80;99.90;;;;;;4399018;32;20074;-75
2021/04/07 01:31:09;;;;;;;0.40;0.40;;;2.90;99.90;;;;;;4399449;32;20070;-75
2021/04/07 01:33:35;;;;;;;0.30;0.30;;;2.80;99.90;;;;;;4398940;32;20388;-75
2021/04/07 01:36:02;;;;;;;0.40;0.40;;;2.90;99.90;;;;;;4399633;32;20069;-74
2021/04/07 01:38:27;;;;;;;0.35;0.35;;;2.70;99.90;;;;;;4401634;32;20085;-75
2021/04/07 01:40:55;;;;;;;1.05;0.95;;;2.70;99.90;;;;;;4401202;32;20122;-75
2021/04/07 01:43:21;;;;;;;0.50;0.50;;;2.70;99.90;;;;;;4401826;32;20459;-75
2021/04/07 01:45:48;;;;;;;0.88;0.37;;;2.70;99.90;;;;;;4400623;32;20121;-75
2021/04/07 01:48:16;;;;;;;0.20;0.20;;;2.60;99.90;;;;;;4399697;32;20491;-75
2021/04/07 01:50:42;;;;;;;0.30;0.30;;;2.60;99.90;;;;;;4399683;32;20082;-75
2021/04/07 01:53:09;;;;;;;0.77;0.77;;;2.50;99.90;;;;;;4398751;32;20139;-75
2021/04/07 01:55:34;;;;;;;0.30;0.30;;;2.40;99.90;;;;;;4399077;32;20066;-75
2021/04/07 01:58:00;;;;;;;0.32;0.32;;;2.50;99.90;;;;;;4398613;32;20558;-75
2021/04/07 02:00:26;;;;;;;0.37;0.37;;;2.60;99.90;;;;;;4399664;32;20070;-75
2021/04/07 02:02:51;;;;;;;0.30;0.30;;;2.60;99.90;;;;;;4399038;32;20090;-75
2021/04/07 02:05:17;;;;;;;0.30;0.30;;;2.50;99.90;;;;;;4398665;32;20110;-75
2021/04/07 02:07:42;;;;;;;0.30;0.30;;;2.60;99.90;;;;;;4399291;32;20117;-75
2021/04/07 02:10:09;;;;;;;0.30;0.30;;;2.60;99.90;;;;;;4398854;32;20066;-75
2021/04/07 02:12:35;;;;;;;0.43;0.43;;;2.50;99.90;;;;;;4400156;32;20078;-75
2021/04/07 02:15:06;;;;;;;0.35;0.35;;;2.50;99.90;;;;;;4399009;32;20077;-75
2021/04/07 02:17:32;;;;;;;;;;;2.60;99.90;;;;;;4398924;32;20170;-74
2021/04/07 02:19:57;;;;;;;0.37;0.37;;;2.60;99.90;;;;;;4398919;32;20004;-75
2021/04/07 02:22:23;;;;;;;0.30;0.30;;;2.70;99.90;;;;;;4399074;32;20078;-74
2021/04/07 02:24:49;;;;;;;0.30;0.30;;;2.60;99.90;;;;;;4398985;32;20058;-74
2021/04/07 02:27:19;;;;;;;0.30;0.30;;;2.60;99.90;;;;;;4397993;32;20082;-74
2021/04/07 02:29:48;;;;;;;0.32;0.32;;;2.60;99.90;;;;;;4399037;32;20132;-75
2021/04/07 02:32:13;;;;;;;0.37;0.37;;;2.50;99.90;;;;;;4399661;32;20503;-75
2021/04/07 02:34:42;;;;;;;0.40;0.40;;;2.50;99.90;;;;;;4398785;32;20054;-74
2021/04/07 02:37:09;;;;;;;0.50;0.50;;;2.60;99.90;;;;;;4399163;32;20410;-74
2021/04/07 02:39:34;;;;;;;1.08;0.65;;;2.60;99.90;;;;;;4399775;32;20447;-74
2021/04/07 02:42:00;;;;;;;0.88;0.82;;;2.40;99.90;;;;;;4400096;32;20086;-74
2021/04/07 02:44:25;;;;;;;0.25;0.25;;;2.50;99.90;;;;;;4399607;32;20070;-74
2021/04/07 02:46:51;;;;;;;0.30;0.30;;;2.50;99.90;;;;;;4399246;32;20413;-74
2021/04/07 02:49:17;;;;;;;0.30;0.30;;;2.50;99.90;;;;;;4399356;32;20082;-75
2021/04/07 02:51:43;;;;;;;6.25;0.82;;;2.50;99.90;;;;;;4398720;32;20129;-74
2021/04/07 02:54:08;;;;;;;0.35;0.35;;;2.60;99.90;;;;;;4397514;32;20173;-74
2021/04/07 02:56:34;;;;;;;1.37;1.08;;;2.50;99.90;;;;;;4398523;32;20487;-74
2021/04/07 02:59:00;;;;;;;0.40;0.40;;;2.50;99.90;;;;;;4398628;32;20233;-74
2021/04/07 03:01:26;;;;;;;0.68;0.68;;;2.60;99.90;;;;;;4398987;32;20549;-74
2021/04/07 03:03:53;;;;;;;0.30;0.30;;;2.60;99.90;;;;;;4399373;32;20425;-74
2021/04/07 03:06:18;;;;;;;0.77;0.35;;;2.60;99.90;;;;;;4384110;32;20163;-74
2021/04/07 03:08:45;;;;;;;0.52;0.52;;;2.60;99.90;;;;;;4399195;32;20072;-75
2021/04/07 03:11:11;;;;;;;0.43;0.43;;;2.60;99.90;;;;;;4398503;32;20621;-74
2021/04/07 03:13:36;;;;;;;0.35;0.35;;;2.60;99.90;;;;;;4399463;32;20125;-74
2021/04/07 03:16:03;;;;;;;2.15;1.42;;;2.60;99.90;;;;;;4398619;32;20085;-75
2021/04/07 03:18:28;;;;;;;0.40;0.40;;;2.60;99.90;;;;;;4398045;32;20070;-75
2021/04/07 03:20:53;;;;;;;0.40;0.40;;;2.60;99.90;;;;;;4397955;32;20066;-74
2021/04/07 03:23:19;;;;;;;0.30;0.30;;;2.60;99.90;;;;;;4397170;32;20501;-74
2021/04/07 03:25:45;;;;;;;0.30;0.30;;;2.60;99.90;;;;;;4398553;32;20134;-74
2021/04/07 03:28:10;;;;;;;0.40;0.40;;;2.50;99.90;;;;;;4398055;32;20058;-74
2021/04/07 03:30:51;;;;;;;7.12;1.65;;;2.50;99.90;;;;;;4398030;32;20070;-74
2021/04/07 03:33:19;;;;;;;0.30;0.30;;;2.50;99.90;;;;;;4398182;32;20510;-74
2021/04/07 03:35:44;;;;;;;5.22;0.85;;;2.40;99.90;;;;;;4397176;32;20092;-74
2021/04/07 03:38:10;;;;;;;0.70;0.70;;;2.40;99.90;;;;;;4397546;32;20280;-74
2021/04/07 03:40:36;;;;;;;0.45;0.45;;;2.30;99.90;;;;;;4399988;32;20451;-74
2021/04/07 03:43:05;;;;;;;0.35;0.35;;;2.40;99.90;;;;;;4400176;32;20379;-74
2021/04/07 03:45:31;;;;;;;0.32;0.32;;;2.50;99.90;;;;;;4398855;32;20058;-74
2021/04/07 03:47:56;;;;;;;0.40;0.40;;;2.50;99.90;;;;;;4399572;32;20066;-74
2021/04/07 03:50:22;;;;;;;0.30;0.30;;;2.50;99.90;;;;;;4398660;32;20101;-74
2021/04/07 03:52:47;;;;;;;0.30;0.30;;;2.50;99.90;;;;;;4397846;32;20503;-75
2021/04/07 03:55:13;;;;;;;0.30;0.30;;;2.50;99.90;;;;;;4397086;32;20066;-74
2021/04/07 03:57:38;;;;;;;0.35;0.35;;;2.50;99.90;;;;;;4397581;32;20565;-74
2021/04/07 04:00:05;;;;;;;0.30;0.30;;;2.40;99.90;;;;;;4396993;32;20085;-74
2021/04/07 04:02:30;;;;;;;0.37;0.37;;;2.50;99.90;;;;;;4397876;32;20139;-74
2021/04/07 04:04:55;;;;;;;0.30;0.30;;;2.50;99.90;;;;;;4397059;32;20485;-74
2021/04/07 04:07:22;;;;;;;0.40;0.40;;;2.40;99.90;;;;;;4397700;32;20077;-74
2021/04/07 04:09:47;;;;;;;0.28;0.28;;;2.50;99.90;;;;;;4396926;32;20069;-74
2021/04/07 04:12:13;;;;;;;0.30;0.30;;;2.40;99.90;;;;;;4397380;32;20071;-74
2021/04/07 04:14:38;;;;;;;0.25;0.25;;;2.40;99.90;;;;;;4398234;32;20066;-74
2021/04/07 04:17:04;;;;;;;0.40;0.40;;;2.40;99.90;;;;;;4397695;32;20085;-74
2021/04/07 04:19:29;;;;;;;0.50;0.50;;;2.50;99.90;;;;;;4398469;32;20068;-74
2021/04/07 04:21:55;;;;;;;0.50;0.50;;;2.50;99.90;;;;;;4397356;32;20167;-74
2021/04/07 04:24:20;;;;;;;0.37;0.37;;;2.50;99.90;;;;;;4396709;32;20070;-74
2021/04/07 04:26:46;;;;;;;0.98;0.62;;;2.60;99.90;;;;;;4396906;32;20066;-74
2021/04/07 04:29:11;;;;;;;0.35;0.35;;;2.50;99.90;;;;;;4397728;32;20515;-74
2021/04/07 04:31:36;;;;;;;0.30;0.30;;;2.50;99.90;;;;;;4397452;32;20171;-74
2021/04/07 04:34:02;;;;;;;1.25;0.73;;;2.40;99.90;;;;;;4396710;32;20062;-74
2021/04/07 04:36:27;;;;;;;0.55;0.55;;;2.30;99.90;;;;;;4396672;32;20401;-75
2021/04/07 04:38:53;;;;;;;0.60;0.60;;;2.20;99.90;;;;;;4397583;32;20066;-74
2021/04/07 04:41:19;;;;;;;0.30;0.30;;;2.30;99.90;;;;;;4397851;32;20062;-74
2021/04/07 04:43:44;;;;;;;2.85;0.98;;;2.30;99.90;;;;;;4400173;32;20062;-74
2021/04/07 04:46:10;;;;;;;0.30;0.30;;;2.30;99.90;;;;;;4399399;32;20089;-74
2021/04/07 04:48:35;;;;;;;1.15;0.52;;;2.30;99.90;;;;;;4383711;32;20066;-74
2021/04/07 04:51:00;;;;;;;0.30;0.30;;;2.30;99.90;;;;;;4383043;32;20457;-74
2021/04/07 04:53:26;;;;;;;0.30;0.30;;;2.40;99.90;;;;;;4381618;32;20074;-74
2021/04/07 04:55:51;;;;;;;0.50;0.50;;;2.40;99.90;;;;;;4382508;32;20074;-74
2021/04/07 04:58:17;;;;;;;3.85;0.65;;;2.30;99.90;;;;;;4382137;32;20070;-74
2021/04/07 05:00:42;;;;;;;3.12;1.80;;;2.30;99.90;;;;;;4382422;32;20527;-74
2021/04/07 05:03:08;;;;;;;0.60;0.60;;;2.30;99.90;;;;;;4376402;32;20087;-74
2021/04/07 05:05:33;;;;;;;0.30;0.30;;;2.30;99.90;;;;;;4378313;32;20070;-74
2021/04/07 05:07:59;;;;;;;0.40;0.40;;;2.40;99.90;;;;;;4381230;32;20069;-74
2021/04/07 05:10:24;;;;;;;0.40;0.40;;;2.50;99.90;;;;;;4382733;32;20070;-75
2021/04/07 05:12:50;;;;;;;0.37;0.37;;;2.50;99.90;;;;;;4377876;32;20078;-74
2021/04/07 05:15:15;;;;;;;0.30;0.30;;;2.40;99.90;;;;;;4377713;32;20481;-74
2021/04/07 05:17:41;;;;;;;0.40;0.40;;;2.40;99.90;;;;;;4385089;32;20110;-74
2021/04/07 05:20:07;;;;;;;0.30;0.30;;;2.50;99.90;;;;;;4384590;32;20066;-74
2021/04/07 05:22:34;;;;;;;1.23;0.82;;;2.60;99.90;;;;;;4385444;32;20391;-74
2021/04/07 05:24:59;;;;;;;0.40;0.40;;;2.40;99.90;;;;;;4383202;32;20082;-74
2021/04/07 05:27:25;;;;;;;0.30;0.30;;;2.40;99.90;;;;;;4384306;32;20066;-74
2021/04/07 05:29:50;;;;;;;0.30;0.30;;;2.50;99.90;;;;;;4384852;32;20074;-75
2021/04/07 05:32:16;;;;;;;0.57;0.57;;;2.50;99.90;;;;;;4385753;32;20146;-75
2021/04/07 05:34:41;;;;;;;0.40;0.40;;;2.40;99.90;;;;;;4383814;32;20126;-75
2021/04/07 05:37:07;;;;;;;0.30;0.30;;;2.40;99.90;;;;;;4385556;32;20121;-75
2021/04/07 05:39:33;;;;;;;1.60;1.37;;;2.40;99.90;;;;;;4384453;32;20078;-75
2021/04/07 05:41:58;;;;;;;4.20;1.37;;;2.40;99.90;;;;;;4387463;32;20467;-75
2021/04/07 05:44:24;;;;;;;0.30;0.30;;;2.40;99.90;;;;;;4386868;32;20547;-74
2021/04/07 05:46:49;;;;;;;0.40;0.40;;;2.30;99.90;;;;;;4389094;32;20070;-74
2021/04/07 05:49:15;;;;;;;0.60;0.60;;;2.40;99.90;;;;;;4401996;32;20066;-74
2021/04/07 05:51:40;;;;;;;0.50;0.50;;;2.40;99.90;;;;;;4399409;32;20118;-74
2021/04/07 05:54:06;;;;;;;0.35;0.35;;;2.40;99.90;;;;;;4398482;32;20419;-74
2021/04/07 05:56:32;;;;;;;0.30;0.30;;;2.60;99.90;;;;;;4399216;32;20053;-74
2021/04/07 05:58:57;;;;;;;0.40;0.40;;;2.60;99.90;;;;;;4399399;32;20070;-74
2021/04/07 06:01:23;;;;;;;1.40;1.30;;;2.70;99.90;;;;;;4399203;32;20074;-74
2021/04/07 06:03:48;;;;;;;0.50;0.50;;;2.60;99.90;;;;;;4398795;32;20486;-74
2021/04/07 06:06:14;;;;;;;0.50;0.50;;;2.60;99.90;;;;;;4398337;32;20125;-74
2021/04/07 06:08:39;;;;;;;0.30;0.30;;;2.60;99.90;;;;;;4398264;32;20380;-75
2021/04/07 06:11:05;;;;;;;0.43;0.43;;;2.60;99.90;;;;;;4399125;32;20070;-75
2021/04/07 06:13:30;;;;;;;0.40;0.40;;;2.60;99.90;;;;;;4398136;32;20074;-75
2021/04/07 06:15:56;;;;;;;0.47;0.47;;;2.60;99.90;;;;;;4399199;32;20066;-75
2021/04/07 06:18:22;;;;;;;0.30;0.30;;;2.70;99.90;;;;;;4399312;32;20130;-75
2021/04/07 06:20:49;;;;;;;3.25;1.10;;;2.80;99.90;;;;;;4399012;32;20465;-75
2021/04/07 06:23:18;;;;;;;0.85;0.85;;;2.80;99.90;;;;;;4397435;32;20083;-75
2021/04/07 06:25:44;;;;;;;0.88;0.85;;;2.80;99.90;;;;;;4399664;32;20088;-75
2021/04/07 06:28:11;;;;;;;0.60;0.60;;;2.90;99.90;;;;;;4397832;32;20078;-75
2021/04/07 06:30:44;;;;;;;13.88;2.42;;;2.80;99.90;;;;;;4400598;32;20430;-75
2021/04/07 06:33:12;;;;;;;0.30;0.30;;;2.80;99.90;;;;;;4399473;32;20090;-75
2021/04/07 06:35:38;;;;;;;0.30;0.30;;;2.80;99.90;;;;;;4399258;32;20069;-74
2021/04/07 06:38:04;;;;;;;1.15;1.05;;;2.80;99.90;;;;;;4398867;32;20118;-74
2021/04/07 06:40:30;;;;;;;2.17;0.75;;;3.00;99.90;;;;;;4399541;32;20085;-74
2021/04/07 06:42:59;;;;;;;0.30;0.30;;;3.10;99.90;;;;;;4398466;32;20065;-75
2021/04/07 06:45:27;;;;;;;0.20;0.20;;;3.10;99.90;;;;;;4399627;32;20078;-75
2021/04/07 06:47:53;;;;;;;0.62;0.62;;;3.00;99.90;;;;;;4398672;32;20106;-75
2021/04/07 06:50:20;;;;;;;0.40;0.40;;;2.90;99.90;;;;;;4399566;32;20174;-75
2021/04/07 06:52:47;;;;;;;0.30;0.30;;;3.00;99.90;;;;;;4395697;32;20077;-76
2021/04/07 06:55:16;;;;;;;0.55;0.55;;;2.90;99.90;;;;;;4398503;32;20074;-75
2021/04/07 06:57:42;;;;;;;0.22;0.22;;;2.80;99.90;;;;;;4401571;32;20498;-75
2021/04/07 07:00:08;;;;;;;0.30;0.30;;;2.90;99.90;;;;;;4400607;32;20078;-75
2021/04/07 07:02:35;;;;;;;0.37;0.37;;;3.00;99.90;;;;;;4398115;32;20069;-75
2021/04/07 07:05:01;;;;;;;0.37;0.37;;;3.10;99.90;;;;;;4397159;32;20065;-75
2021/04/07 07:07:27;;;;;;;1.17;0.75;;;3.20;99.90;;;;;;4398061;32;20083;-75
2021/04/07 07:09:53;;;;;;;0.47;0.47;;;3.00;99.90;;;;;;4397876;32;20409;-75
2021/04/07 07:12:20;;;;;;;0.30;0.30;;;2.70;99.90;;;;;;4398308;32;20078;-75
2021/04/07 07:14:47;;;;;;;2.30;1.58;;;2.70;99.90;;;;;;4397821;32;20066;-76
2021/04/07 07:17:12;;;;;;;0.30;0.30;;;2.70;99.90;;;;;;4397780;32;20126;-75
2021/04/07 07:19:38;;;;;;;0.35;0.35;;;2.50;99.90;;;;;;4398375;32;20082;-75
2021/04/07 07:22:06;;;;;;;0.47;0.47;;;2.40;99.90;;;;;;4398474;32;20436;-75
2021/04/07 07:24:35;;;;;;;0.35;0.35;;;2.40;99.90;;;;;;4397546;32;20128;-75
2021/04/07 07:27:03;;;;;;;0.30;0.30;;;2.50;99.90;;;;;;4398186;32;20507;-74
2021/04/07 07:29:31;;;;;;;1.00;0.60;;;2.60;99.90;;;;;;4398403;32;20140;-74
2021/04/07 07:31:59;;;;;;;0.90;0.70;;;2.80;99.90;;;;;;4397669;32;20078;-75
2021/04/07 07:34:26;;;;;;;0.77;0.77;;;2.90;99.90;;;;;;4398597;32;20081;-74
2021/04/07 07:36:52;;;;;;;0.80;0.57;;;3.10;99.90;;;;;;4397641;32;20157;-74
2021/04/07 07:39:27;;;;;;;5.82;1.42;;;3.20;99.90;;;;;;4397158;32;20078;-74
2021/04/07 07:41:57;;;;;;;0.70;0.70;;;3.30;99.90;;;;;;4397805;32;20389;-74
2021/04/07 07:44:24;;;;;;;4.40;1.97;;;3.30;99.90;;;;;;4397748;32;20062;-74
2021/04/07 07:47:04;;;;;;;0.32;0.32;;;3.20;99.90;;;;;;4405597;32;20113;-74
2021/04/07 07:49:30;;;;;;;0.30;0.30;;;3.10;99.90;;;;;;4413339;32;20506;-75
2021/04/07 07:51:56;;;;;;;0.30;0.30;;;3.10;99.90;;;;;;4413138;32;20229;-75
2021/04/07 07:54:24;;;;;;;0.30;0.30;;;3.30;99.90;;;;;;4411802;32;20086;-75
2021/04/07 07:56:51;;;;;;;0.30;0.30;;;3.30;99.90;;;;;;4413053;32;20561;-74
2021/04/07 07:59:29;;;;;;;0.32;0.32;;;3.40;99.90;;;;;;4400853;32;20081;-74
2021/04/07 08:01:55;;;;;;;2.90;1.12;;;3.40;99.90;;;;;;4398093;32;20129;-75
2021/04/07 08:04:22;;;;;;;3.40;1.77;;;3.40;99.90;;;;;;4397414;32;20074;-75
2021/04/07 08:06:47;;;;;;;0.32;0.32;;;3.50;99.90;;;;;;4397843;32;20463;-76
2021/04/07 08:09:13;;;;;;;0.37;0.37;;;3.60;99.90;;;;;;4397590;32;20086;-76
2021/04/07 08:11:43;;;;;;;0.30;0.30;;;3.70;99.90;;;;;;4398095;32;20082;-75
2021/04/07 08:14:12;;;;;;;0.45;0.45;;;3.90;99.90;;;;;;4399921;32;20143;-75
2021/04/07 08:16:39;;;;;;;9.40;1.70;;;4.00;99.90;;;;;;4399188;32;20463;-75
2021/04/07 08:19:05;;;;;;;0.30;0.30;;;4.20;99.90;;;;;;4398516;32;20066;-74
2021/04/07 08:21:32;;;;;;;0.40;0.40;;;4.30;99.90;;;;;;4400016;32;20530;-75
2021/04/07 08:24:00;;;;;;;0.40;0.40;;;4.20;99.90;;;;;;4398278;32;20095;-74
2021/04/07 08:26:29;;;;;;;0.50;0.50;;;4.30;99.90;;;;;;4398259;32;20075;-75
2021/04/07 08:28:55;;;;;;;0.30;0.30;;;4.30;99.90;;;;;;4399342;32;20062;-75
2021/04/07 08:31:21;;;;;;;1.00;0.73;;;4.30;99.90;;;;;;4400241;32;20069;-75
2021/04/07 08:33:49;;;;;;;0.30;0.30;;;4.40;99.90;;;;;;4397414;32;20074;-75
2021/04/07 08:36:17;;;;;;;0.37;0.37;;;4.40;99.90;;;;;;4397420;32;20062;-74
2021/04/07 08:38:42;;;;;;;2.80;0.90;;;4.40;99.90;;;;;;4397186;32;20192;-74
2021/04/07 08:41:11;;;;;;;0.98;0.85;;;4.20;99.90;;;;;;4397856;32;20146;-74
2021/04/07 08:43:37;;;;;;;0.62;0.50;;;4.30;99.90;;;;;;4397051;32;20426;-74
2021/04/07 08:46:16;;;;;;;0.82;0.60;;;4.50;99.90;;;;;;4402139;32;20065;-74
2021/04/07 08:48:43;;;;;;;0.88;0.77;;;4.70;99.90;;;;;;4414740;32;20132;-75
2021/04/07 08:51:12;;;;;;;0.47;0.47;;;4.60;99.90;;;;;;4415201;32;20065;-75
2021/04/07 08:53:40;;;;;;;0.57;0.52;;;4.70;99.90;;;;;;4415408;32;20089;-75
2021/04/07 08:56:11;;;;;;;0.95;0.82;;;4.70;99.90;;;;;;4416584;32;20435;-75
2021/04/07 08:58:52;;;;;;;0.30;0.30;;;4.60;99.90;;;;;;4405619;32;20077;-75
2021/04/07 09:01:34;;;;;;;;;;;4.90;99.90;;;;;;4402025;32;20166;-75
2021/04/07 09:04:20;;;;;;;0.60;0.60;;;4.90;99.90;;;;;;4399286;32;19957;-75
2021/04/07 09:07:02;;;;;;;1.08;0.62;;;5.00;99.90;;;;;;4399238;32;20090;-75
2021/04/07 09:09:35;;;;;;;4.95;1.83;;;5.00;99.90;;;;;;4399705;32;20062;-74
2021/04/07 09:12:01;;;;;;;1.12;1.02;;;5.00;99.90;;;;;;4400648;32;20093;-75
2021/04/07 09:14:28;;;;;;;0.90;0.90;;;4.90;99.90;;;;;;4400142;32;20498;-74
2021/04/07 09:17:02;;;;;;;0.20;0.20;;;4.70;99.90;;;;;;4399298;32;20636;-74
2021/04/07 09:19:34;;;;;;;0.30;0.30;;;4.70;99.90;;;;;;4399874;32;20066;-75
2021/04/07 09:22:07;;;;;;;0.70;0.70;;;4.80;99.90;;;;;;4401390;32;20069;-74
2021/04/07 09:24:44;;;;;;;0.50;0.50;;;4.90;99.90;;;;;;4401906;32;20081;-75
2021/04/07 09:27:26;;;;;;;0.75;0.73;;;5.20;99.90;;;;;;4402027;32;20114;-75
2021/04/07 09:30:00;;;;;;;0.77;0.45;;;5.40;99.90;;;;;;4401979;32;20129;-77
2021/04/07 09:32:30;;;;;;;0.30;0.30;;;5.40;99.90;;;;;;4399599;32;20078;-75
2021/04/07 09:34:57;;;;;;;0.30;0.30;;;5.00;99.90;;;;;;4398921;32;20074;-75
2021/04/07 09:37:23;;;;;;;0.40;0.40;;;4.90;99.90;;;;;;4399458;32;20062;-76
2021/04/07 09:39:49;;;;;;;0.30;0.30;;;5.10;99.90;;;;;;4397463;32;79658;-75
2021/04/07 09:42:16;;;;;;;0.32;0.32;;;5.40;99.90;;;;;;4399216;32;20070;-75
2021/04/07 09:44:41;;;;;;;0.30;0.30;;;5.80;99.90;;;;;;4400115;32;20451;-75
2021/04/07 09:47:07;;;;;;;0.30;0.30;;;6.10;99.90;;;;;;4408988;32;20058;-74
2021/04/07 09:49:33;;;;;;;0.40;0.40;;;5.80;99.90;;;;;;4414148;32;20085;-75
2021/04/07 09:51:59;;;;;;;6.07;1.27;;;5.80;99.90;;;;;;4415027;32;20066;-75
2021/04/07 09:54:26;;;;;;;1.65;0.98;;;6.20;99.90;;;;;;4413591;32;20083;-75
2021/04/07 09:56:55;;;;;;;0.80;0.45;;;6.50;99.90;;;;;;4413333;32;20086;-75
2021/04/07 09:59:41;;;;;;;2.30;0.95;;;6.80;99.90;;;;;;4386761;32;20059;-75
2021/04/07 10:02:09;;;;;;;1.55;0.70;;;6.90;99.90;;;;;;4388043;32;20152;-75
2021/04/07 10:04:37;;;;;;;25.42;0.82;;;6.60;99.90;;;;;;4384815;32;20467;-75
2021/04/07 10:07:24;;;;;;;0.32;0.32;;;6.80;99.90;;;;;;4399324;32;20071;-75
2021/04/07 10:09:52;;;;;;;0.20;0.20;;;6.50;99.90;;;;;;4398668;32;20074;-75
2021/04/07 10:12:21;;;;;;;3.42;0.77;;;6.40;99.90;;;;;;4399518;32;20062;-75
2021/04/07 10:14:53;;;;;;;0.30;0.30;;;6.50;99.90;;;;;;4399400;32;20405;-75
2021/04/07 10:17:24;;;;;;;1.65;0.82;;;6.80;99.90;;;;;;4399073;32;20129;-74
2021/04/07 10:19:49;;;;;;;1.08;0.65;;;6.60;98.60;;;;;;4398623;32;20053;-75
2021/04/07 10:22:25;;;;;;;1.90;1.23;;;6.80;98.90;;;;;;4402278;32;20066;-75
2021/04/07 10:24:56;;;;;;;0.50;0.50;;;6.60;99.60;;;;;;4400750;32;20117;-75
2021/04/07 10:27:24;;;;;;;0.55;0.55;;;6.60;99.00;;;;;;4401742;32;20550;-75
2021/04/07 10:30:00;;;;;;;0.90;0.75;;;6.30;99.30;;;;;;4401020;32;20070;-75
2021/04/07 10:32:27;;;;;;;0.43;0.43;;;6.20;99.80;;;;;;4400372;32;20066;-75
2021/04/07 10:35:00;;;;;;;0.30;0.30;;;6.00;99.90;;;;;;4398791;32;20067;-75
2021/04/07 10:37:25;;;;;;;0.22;0.22;;;6.00;99.90;;;;;;4399498;32;20066;-76
2021/04/07 10:39:51;;;;;;;1.50;1.02;;;6.60;99.60;;;;;;4399812;32;20523;-76
2021/04/07 10:42:18;;;;;;;0.37;0.37;;;6.80;98.20;;;;;;4400552;32;20121;-76
2021/04/07 10:44:55;;;;;;;0.40;0.40;;;7.00;98.20;;;;;;4399161;32;20121;-76
2021/04/07 10:47:22;;;;;;;0.30;0.30;;;7.10;98.60;;;;;;4410435;32;20519;-75
2021/04/07 10:49:56;;;;;;;0.25;0.25;;;6.80;98.40;;;;;;4414673;32;20404;-75
2021/04/07 10:52:32;;;;;;;0.55;0.55;;;6.60;97.50;;;;;;4413916;32;20065;-75
2021/04/07 10:54:59;;;;;;;2.17;1.33;;;6.40;98.40;;;;;;4413050;32;20069;-76
2021/04/07 10:57:35;;;;;;;0.32;0.32;;;6.40;99.20;;;;;;4412807;32;20404;-76
2021/04/07 11:00:03;;;;;;;1.65;1.35;;;6.30;99.60;;;;;;4398516;32;20058;-76
2021/04/07 11:02:39;;;;;;;0.68;0.68;;;6.50;99.70;;;;;;4398882;32;20070;-76
2021/04/07 11:05:15;;;;;;;4.28;0.73;;;6.50;99.60;;;;;;4397484;32;20157;-75
2021/04/07 11:07:40;;;;;;;0.68;0.57;;;6.60;99.90;;;;;;4397674;32;20166;-75
2021/04/07 11:10:09;;;;;;;0.62;0.57;;;6.40;99.40;;;;;;4398749;32;20070;-76
2021/04/07 11:12:35;;;;;;;0.30;0.30;;;6.30;99.50;;;;;;4398950;32;20562;-75
2021/04/07 11:15:04;;;;;;;0.37;0.37;;;6.20;99.60;;;;;;4398521;32;20129;-76
2021/04/07 11:17:29;;;;;;;0.30;0.30;;;6.30;99.90;;;;;;4398111;32;20121;-75
2021/04/07 11:19:55;;;;;;;0.30;0.30;;;6.50;99.80;;;;;;4398127;32;20058;-75
2021/04/07 11:22:20;;;;;;;0.22;0.22;;;6.10;99.90;;;;;;4400950;32;20070;-75
2021/04/07 11:24:46;;;;;;;4.75;1.08;;;6.20;99.80;;;;;;4400665;32;20112;-76
2021/04/07 11:27:12;;;;;;;0.35;0.35;;;6.10;99.90;;;;;;4400363;32;20078;-76
2021/04/07 11:29:38;;;;;;;0.30;0.30;;;6.00;99.90;;;;;;4400797;32;20151;-76
2021/04/07 11:32:06;;;;;;;0.30;0.30;;;6.00;99.90;;;;;;4398557;32;20082;-76
2021/04/07 11:34:38;;;;;;;0.70;0.50;;;5.90;99.90;;;;;;4398735;32;20058;-76
2021/04/07 11:37:13;;;;;;;0.28;0.28;;;5.90;99.90;;;;;;4398694;32;20078;-76
2021/04/07 11:39:49;;;;;;;4.57;0.65;;;5.90;99.90;;;;;;4398065;32;20058;-76
2021/04/07 11:42:22;;;;;;;7.78;3.33;;;5.80;99.90;;;;;;4398487;32;20059;-75
2021/04/07 11:44:48;;;;;;;0.30;0.30;;;6.00;99.90;;;;;;4398306;32;20066;-74
2021/04/07 11:47:14;;;;;;;0.28;0.28;;;6.20;99.90;;;;;;4408305;32;20162;-74
2021/04/07 11:49:39;;;;;;;0.30;0.30;;;6.30;99.90;;;;;;4413124;32;20061;-75
2021/04/07 11:52:06;;;;;;;0.80;0.70;;;6.30;99.90;;;;;;4413559;32;20066;-74
2021/04/07 11:54:31;;;;;;;0.30;0.30;;;6.10;99.90;;;;;;4412636;32;20174;-75
2021/04/07 11:56:57;;;;;;;0.70;0.70;;;6.60;99.90;;;;;;4412790;32;20082;-76
2021/04/07 11:59:24;;;;;;;0.30;0.30;;;7.30;99.60;;;;;;4401026;32;20444;-75
2021/04/07 12:01:54;;;;;;;0.30;0.30;;;7.10;99.00;;;;;;4397839;32;20090;-75
2021/04/07 12:04:20;;;;;;;0.30;0.30;;;6.40;99.60;;;;;;4398003;32;20070;-75
2021/04/07 12:06:46;;;;;;;0.30;0.30;;;6.10;99.90;;;;;;4396983;32;20618;-75
2021/04/07 12:09:12;;;;;;;1.25;0.70;;;5.90;99.90;;;;;;4397888;32;20069;-75
2021/04/07 12:11:38;;;;;;;0.25;0.25;;;6.00;99.90;;;;;;4397076;32;20079;-75
2021/04/07 12:14:05;;;;;;;0.30;0.30;;;6.10;99.90;;;;;;4397851;32;20463;-76
2021/04/07 12:16:31;;;;;;;0.50;0.50;;;6.10;99.90;;;;;;4398134;32;20532;-76
2021/04/07 12:18:57;;;;;;;0.30;0.30;;;6.00;99.90;;;;;;4397079;32;20069;-75
2021/04/07 12:21:23;;;;;;;0.50;0.50;;;6.10;99.90;;;;;;4396791;32;20074;-75
2021/04/07 12:23:49;;;;;;;0.50;0.50;;;6.10;99.90;;;;;;4397500;32;20107;-75
2021/04/07 12:26:15;;;;;;;3.30;1.15;;;6.20;99.90;;;;;;4397464;32;20058;-76
2021/04/07 12:28:42;;;;;;;0.50;0.50;;;6.30;99.90;;;;;;4397529;32;20081;-75
2021/04/07 12:31:15;;;;;;;0.40;0.40;;;6.10;99.90;;;;;;4397673;32;20062;-75
2021/04/07 12:33:43;;;;;;;0.30;0.30;;;6.10;99.90;;;;;;4397377;32;20392;-75
2021/04/07 12:36:10;;;;;;;0.40;0.40;;;6.20;99.90;;;;;;4396804;32;20503;-75
2021/04/07 12:38:37;;;;;;;0.30;0.30;;;6.20;99.90;;;;;;4396979;32;20070;-75
2021/04/07 12:41:10;;;;;;;1.15;0.60;;;6.60;99.90;;;;;;4397493;32;20138;-76
2021/04/07 12:43:36;;;;;;;0.32;0.32;;;7.10;99.70;;;;;;4397458;32;20058;-76
2021/04/07 12:46:01;;;;;;;0.60;0.60;;;7.00;99.60;;;;;;4401830;32;20070;-75
2021/04/07 12:48:27;;;;;;;0.57;0.57;;;6.80;99.40;;;;;;4412144;32;20099;-75
2021/04/07 12:50:52;;;;;;;0.30;0.30;;;6.70;99.50;;;;;;4412435;32;20095;-75
2021/04/07 12:53:18;;;;;;;0.22;0.22;;;6.60;99.90;;;;;;4411290;32;20066;-75
2021/04/07 12:55:44;;;;;;;0.50;0.50;;;6.80;99.90;;;;;;4411877;32;20062;-75
2021/04/07 12:58:10;;;;;;;0.30;0.30;;;7.20;99.70;;;;;;4406090;32;20113;-75